createdAt,value
2022-07-30T00:02:13.556Z,19.20
2022-07-30T00:04:41.444Z,19.20
2022-07-30T00:07:09.417Z,19.20
2022-07-30T00:09:37.310Z,19.20
2022-07-30T00:12:05.944Z,19.20
2022-07-30T00:14:35.871Z,19.10
2022-07-30T00:17:04.478Z,19.10
2022-07-30T00:19:33.789Z,19.10
2022-07-30T00:22:01.720Z,19.10
2022-07-30T00:24:29.970Z,19.10
2022-07-30T00:26:57.893Z,19.00
2022-07-30T00:29:26.679Z,19.00
2022-07-30T00:31:56.446Z,19.00
2022-07-30T00:34:24.375Z,19.00
2022-07-30T00:36:52.983Z,19.00
2022-07-30T00:39:20.930Z,19.00
2022-07-30T00:42:15.054Z,19.00
2022-07-30T00:49:00.124Z,18.90
2022-07-30T00:51:28.076Z,18.90
2022-07-30T00:53:55.927Z,19.00
2022-07-30T00:56:23.764Z,18.90
2022-07-30T00:58:51.860Z,19.00
2022-07-30T01:01:19.740Z,19.00
2022-07-30T01:03:47.646Z,19.00
2022-07-30T01:06:15.477Z,19.00
2022-07-30T01:08:44.515Z,19.00
2022-07-30T01:11:12.701Z,19.00
2022-07-30T01:13:43.851Z,19.00
2022-07-30T01:16:11.852Z,19.00
2022-07-30T01:19:02.659Z,18.90
2022-07-30T01:21:33.651Z,18.90
2022-07-30T01:24:05.274Z,18.80
2022-07-30T01:26:34.338Z,18.80
2022-07-30T01:29:02.659Z,18.80
2022-07-30T01:31:30.961Z,18.80
2022-07-30T01:34:00.167Z,18.80
2022-07-30T01:36:28.666Z,18.80
2022-07-30T01:38:56.961Z,18.80
2022-07-30T01:41:25.925Z,18.80
2022-07-30T01:43:54.397Z,18.80
2022-07-30T01:46:24.827Z,18.80
2022-07-30T01:48:53.180Z,18.80
2022-07-30T01:51:21.123Z,18.80
2022-07-30T01:53:52.625Z,18.90
2022-07-30T01:56:24.938Z,18.90
2022-07-30T01:58:55.050Z,18.80
2022-07-30T02:01:25.979Z,18.80
2022-07-30T02:04:01.695Z,18.80
2022-07-30T02:06:36.036Z,18.80
2022-07-30T02:09:11.253Z,18.80
2022-07-30T02:12:05.095Z,18.80
2022-07-30T02:14:48.306Z,18.80
2022-07-30T02:17:19.427Z,18.80
2022-07-30T02:19:49.863Z,18.80
2022-07-30T02:22:19.059Z,18.70
2022-07-30T02:24:55.415Z,18.70
2022-07-30T02:27:30.340Z,18.60
2022-07-30T02:30:00.258Z,18.60
2022-07-30T02:32:30.781Z,18.50
2022-07-30T02:35:01.557Z,18.50
2022-07-30T02:37:38.539Z,18.50
2022-07-30T02:40:12.049Z,18.50
2022-07-30T02:42:40.555Z,18.50
2022-07-30T02:45:08.751Z,18.50
2022-07-30T02:47:37.961Z,18.50
2022-07-30T02:50:07.396Z,18.40
2022-07-30T02:52:36.374Z,18.30
2022-07-30T02:55:05.159Z,18.30
2022-07-30T02:57:34.254Z,18.30
2022-07-30T03:00:03.615Z,18.20
2022-07-30T03:02:33.019Z,18.10
2022-07-30T03:05:02.803Z,17.90
2022-07-30T03:07:33.186Z,17.70
2022-07-30T03:10:01.794Z,17.70
2022-07-30T03:12:34.031Z,17.70
2022-07-30T03:15:05.222Z,17.60
2022-07-30T03:17:37.907Z,17.60
2022-07-30T03:20:08.824Z,17.60
2022-07-30T03:22:38.115Z,17.70
2022-07-30T03:25:06.854Z,17.60
2022-07-30T03:27:37.116Z,17.60
2022-07-30T03:30:06.199Z,17.60
2022-07-30T03:32:35.409Z,17.50
2022-07-30T03:35:06.415Z,17.60
2022-07-30T03:37:40.313Z,17.60
2022-07-30T03:40:09.363Z,17.60
2022-07-30T03:42:37.734Z,17.60
2022-07-30T03:45:08.595Z,17.60
2022-07-30T03:47:38.341Z,17.50
2022-07-30T03:50:06.847Z,17.50
2022-07-30T03:52:41.586Z,17.50
2022-07-30T03:55:16.150Z,17.40
2022-07-30T03:58:04.569Z,17.40
2022-07-30T04:00:33.799Z,17.40
2022-07-30T04:03:01.847Z,17.40
2022-07-30T04:05:50.306Z,17.40
2022-07-30T04:08:18.197Z,17.40
2022-07-30T04:10:46.539Z,17.40
2022-07-30T04:13:52.716Z,17.40
2022-07-30T04:16:40.955Z,17.40
2022-07-30T04:19:16.418Z,17.40
2022-07-30T04:21:45.831Z,17.30
2022-07-30T04:24:14.006Z,17.20
2022-07-30T04:26:42.543Z,17.20
2022-07-30T04:29:13.365Z,17.20
2022-07-30T04:31:42.684Z,17.30
2022-07-30T04:34:30.523Z,17.30
2022-07-30T04:36:58.852Z,17.40
2022-07-30T04:39:33.611Z,17.50
2022-07-30T04:42:01.515Z,17.50
2022-07-30T04:44:36.776Z,17.50
2022-07-30T04:47:34.106Z,17.60
2022-07-30T04:50:22.650Z,17.70
2022-07-30T04:52:51.990Z,17.70
2022-07-30T04:55:28.579Z,17.70
2022-07-30T04:58:02.431Z,17.70
2022-07-30T05:00:38.983Z,17.70
2022-07-30T05:03:12.759Z,17.80
2022-07-30T05:05:43.657Z,17.80
2022-07-30T05:08:13.639Z,17.80
2022-07-30T05:10:42.580Z,17.80
2022-07-30T05:13:15.310Z,17.80
2022-07-30T05:15:48.214Z,17.70
2022-07-30T05:18:19.245Z,17.70
2022-07-30T05:20:48.103Z,17.70
2022-07-30T05:23:42.261Z,17.80
2022-07-30T05:26:38.019Z,17.90
2022-07-30T05:29:07.215Z,18.00
2022-07-30T05:31:59.073Z,18.00
2022-07-30T05:34:32.657Z,18.00
2022-07-30T05:37:01.141Z,18.00
2022-07-30T05:39:29.268Z,18.10
2022-07-30T05:42:17.058Z,18.10
2022-07-30T05:44:49.055Z,18.10
2022-07-30T05:47:17.014Z,18.20
2022-07-30T05:49:47.351Z,18.20
2022-07-30T05:52:16.432Z,18.30
2022-07-30T05:54:44.758Z,18.30
2022-07-30T05:57:50.800Z,18.30
2022-07-30T06:00:19.833Z,18.40
2022-07-30T06:02:55.223Z,18.40
2022-07-30T06:05:26.278Z,18.30
2022-07-30T06:07:55.594Z,18.30
2022-07-30T06:10:25.239Z,18.50
2022-07-30T06:12:55.236Z,18.50
2022-07-30T06:15:25.963Z,18.60
2022-07-30T06:18:01.979Z,18.50
2022-07-30T06:21:02.653Z,18.60
2022-07-30T06:23:50.568Z,18.70
2022-07-30T06:26:24.438Z,18.80
2022-07-30T06:28:52.424Z,18.90
2022-07-30T06:31:27.048Z,18.90
2022-07-30T06:33:55.108Z,18.90
2022-07-30T06:36:24.338Z,19.00
2022-07-30T06:39:14.347Z,19.20
2022-07-30T06:42:31.235Z,19.40
2022-07-30T06:45:25.364Z,19.60
2022-07-30T06:48:12.036Z,19.90
2022-07-30T06:50:43.075Z,20.00
2022-07-30T06:53:16.836Z,20.00
2022-07-30T06:56:14.266Z,20.00
2022-07-30T06:58:48.641Z,20.00
2022-07-30T07:01:35.506Z,19.90
2022-07-30T07:04:04.829Z,19.80
2022-07-30T07:06:36.848Z,19.70
2022-07-30T07:09:09.598Z,19.70
2022-07-30T07:11:45.760Z,19.70
2022-07-30T07:14:16.999Z,19.80
2022-07-30T07:16:48.983Z,20.10
2022-07-30T07:20:01.235Z,20.40
2022-07-30T07:22:41.938Z,20.60
2022-07-30T07:25:10.361Z,20.70
2022-07-30T07:27:38.633Z,20.80
2022-07-30T07:30:07.389Z,21.00
2022-07-30T07:32:38.074Z,20.90
2022-07-30T07:35:07.047Z,20.80
2022-07-30T07:37:38.374Z,20.80
2022-07-30T07:40:08.794Z,21.10
2022-07-30T07:42:42.559Z,21.30
2022-07-30T07:45:11.181Z,21.30
2022-07-30T07:47:52.062Z,21.30
2022-07-30T07:50:40.027Z,21.30
2022-07-30T07:53:14.010Z,21.40
2022-07-30T07:55:42.348Z,21.40
2022-07-30T07:58:12.522Z,21.50
2022-07-30T08:00:44.740Z,21.40
2022-07-30T08:03:13.615Z,21.20
2022-07-30T08:05:59.036Z,21.20
2022-07-30T08:09:06.759Z,21.20
2022-07-30T08:12:13.976Z,21.10
2022-07-30T08:15:13.344Z,21.20
2022-07-30T08:18:00.130Z,21.80
2022-07-30T08:20:40.761Z,22.30
2022-07-30T08:23:09.372Z,22.70
2022-07-30T08:25:37.713Z,23.00
2022-07-30T08:28:05.930Z,22.70
2022-07-30T08:33:03.574Z,22.40
2022-07-30T08:35:31.419Z,22.20
2022-07-30T08:37:59.378Z,22.30
2022-07-30T08:40:28.273Z,22.40
2022-07-30T08:43:05.891Z,22.50
2022-07-30T08:45:34.718Z,22.40
2022-07-30T08:48:16.921Z,22.30
2022-07-30T08:50:48.452Z,22.10
2022-07-30T08:53:36.924Z,21.80
2022-07-30T08:56:05.755Z,21.50
2022-07-30T08:58:37.412Z,21.50
2022-07-30T09:01:06.372Z,21.60
2022-07-30T09:03:34.401Z,21.70
2022-07-30T09:06:03.937Z,21.90
2022-07-30T09:08:32.397Z,22.20
2022-07-30T09:11:00.632Z,22.60
2022-07-30T09:13:30.202Z,23.10
2022-07-30T09:16:00.125Z,23.10
2022-07-30T09:18:40.258Z,23.10
2022-07-30T09:21:23.322Z,23.10
2022-07-30T09:23:57.959Z,23.30
2022-07-30T09:27:06.378Z,23.40
2022-07-30T09:29:57.446Z,23.70
2022-07-30T09:32:57.358Z,24.10
2022-07-30T09:35:44.562Z,24.30
2022-07-30T09:38:13.167Z,24.40
2022-07-30T09:40:57.662Z,24.20
2022-07-30T09:43:44.877Z,24.00
2022-07-30T09:46:21.838Z,24.10
2022-07-30T09:48:51.605Z,24.20
2022-07-30T09:51:24.012Z,24.20
2022-07-30T09:54:07.908Z,24.40
2022-07-30T09:56:37.589Z,24.80
2022-07-30T09:59:18.624Z,25.30
2022-07-30T10:01:56.244Z,25.80
2022-07-30T10:04:49.418Z,26.20
2022-07-30T10:07:25.564Z,26.70
2022-07-30T10:09:59.876Z,26.60
2022-07-30T10:12:28.947Z,26.40
2022-07-30T10:14:59.113Z,26.40
2022-07-30T10:17:32.667Z,26.30
2022-07-30T10:20:19.357Z,26.50
2022-07-30T10:23:09.122Z,26.60
2022-07-30T10:25:54.915Z,26.50
2022-07-30T10:28:49.177Z,26.70
2022-07-30T10:31:48.836Z,27.10
2022-07-30T10:34:05.735Z,27.20
2022-07-30T10:36:36.249Z,27.30
2022-07-30T10:39:06.440Z,27.60
2022-07-30T10:41:43.034Z,27.70
2022-07-30T10:44:19.563Z,27.50
2022-07-30T10:47:07.135Z,27.00
2022-07-30T10:49:41.411Z,26.70
2022-07-30T10:52:11.117Z,26.40
2022-07-30T10:54:46.619Z,26.00
2022-07-30T10:57:31.806Z,25.60
2022-07-30T11:00:01.153Z,25.30
2022-07-30T11:02:36.128Z,25.10
2022-07-30T11:05:43.807Z,24.90
2022-07-30T11:08:26.650Z,24.50
2022-07-30T11:11:00.229Z,24.30
2022-07-30T11:13:52.129Z,23.90
2022-07-30T11:16:22.431Z,23.90
2022-07-30T11:19:27.231Z,23.90
2022-07-30T11:22:11.212Z,24.00
2022-07-30T11:24:45.927Z,24.20
2022-07-30T11:27:36.451Z,24.30
2022-07-30T11:30:27.355Z,24.20
2022-07-30T11:32:57.267Z,24.30
2022-07-30T11:35:34.742Z,24.30
2022-07-30T11:38:09.214Z,24.60
2022-07-30T11:40:38.282Z,25.10
2022-07-30T11:43:35.274Z,25.60
2022-07-30T11:46:12.386Z,25.80
2022-07-30T11:48:55.537Z,25.70
2022-07-30T11:51:23.645Z,25.60
2022-07-30T11:54:07.494Z,25.60
2022-07-30T11:56:35.464Z,25.80
2022-07-30T11:59:06.654Z,25.70
2022-07-30T12:01:35.375Z,25.30
2022-07-30T12:04:05.088Z,25.00
2022-07-30T12:06:33.428Z,24.90
2022-07-30T12:09:01.443Z,24.90
2022-07-30T12:11:38.616Z,24.90
2022-07-30T12:14:09.370Z,25.00
2022-07-30T12:16:37.399Z,24.90
2022-07-30T12:19:06.487Z,24.80
2022-07-30T12:21:34.857Z,24.40
2022-07-30T12:24:04.746Z,24.10
2022-07-30T12:26:33.387Z,23.80
2022-07-30T12:29:02.321Z,23.70
2022-07-30T12:31:31.299Z,23.60
2022-07-30T12:33:59.467Z,23.80
2022-07-30T12:36:28.759Z,24.20
2022-07-30T12:38:59.049Z,24.70
2022-07-30T12:42:04.479Z,25.30
2022-07-30T12:44:36.235Z,25.90
2022-07-30T12:47:08.158Z,26.10
2022-07-30T12:49:36.732Z,26.10
2022-07-30T12:52:13.296Z,26.50
2022-07-30T12:54:48.399Z,26.90
2022-07-30T12:57:16.291Z,27.10
2022-07-30T12:59:44.139Z,27.50
2022-07-30T13:02:11.962Z,27.70
2022-07-30T13:04:58.946Z,27.90
2022-07-30T13:07:53.799Z,28.00
2022-07-30T13:10:23.457Z,27.80
2022-07-30T13:12:54.957Z,28.00
2022-07-30T13:15:23.539Z,28.10
2022-07-30T13:17:51.486Z,28.30
2022-07-30T13:20:19.819Z,28.40
2022-07-30T13:22:47.718Z,28.50
2022-07-30T13:25:15.693Z,28.60
2022-07-30T13:27:43.715Z,28.70
2022-07-30T13:30:11.868Z,28.60
2022-07-30T13:32:39.685Z,28.50
2022-07-30T13:35:07.639Z,28.30
2022-07-30T13:37:38.214Z,28.20
2022-07-30T13:40:07.233Z,28.10
2022-07-30T13:42:35.086Z,28.00
2022-07-30T13:45:02.965Z,27.80
2022-07-30T13:47:30.829Z,27.60
2022-07-30T13:49:58.655Z,27.40
2022-07-30T13:52:26.574Z,27.40
2022-07-30T13:54:55.468Z,27.30
2022-07-30T13:57:23.258Z,27.20
2022-07-30T13:59:51.142Z,27.20
2022-07-30T14:02:18.998Z,27.10
2022-07-30T14:04:46.814Z,27.20
2022-07-30T14:07:15.827Z,27.40
2022-07-30T14:09:45.000Z,27.30
2022-07-30T14:12:15.726Z,27.30
2022-07-30T14:14:43.549Z,27.20
2022-07-30T14:17:11.442Z,26.90
2022-07-30T14:19:39.267Z,26.90
2022-07-30T14:22:07.089Z,26.90
2022-07-30T14:24:34.936Z,27.00
2022-07-30T14:27:02.969Z,26.80
2022-07-30T14:29:50.877Z,26.60
2022-07-30T14:32:19.298Z,26.40
2022-07-30T14:34:49.697Z,26.20
2022-07-30T14:37:17.814Z,26.10
2022-07-30T14:39:45.712Z,26.10
2022-07-30T14:42:13.626Z,26.10
2022-07-30T14:44:41.486Z,26.30
2022-07-30T14:47:09.590Z,26.50
2022-07-30T14:49:37.516Z,26.80
2022-07-30T14:52:05.405Z,27.20
2022-07-30T14:54:33.296Z,27.30
2022-07-30T14:57:01.496Z,27.50
2022-07-30T14:59:29.768Z,27.60
2022-07-30T15:01:57.686Z,27.70
2022-07-30T15:04:25.638Z,27.80
2022-07-30T15:06:53.493Z,27.80
2022-07-30T15:09:21.309Z,28.10
2022-07-30T15:12:08.392Z,28.20
2022-07-30T15:14:41.102Z,28.10
2022-07-30T15:17:09.210Z,27.90
2022-07-30T15:19:37.017Z,27.70
2022-07-30T15:22:14.220Z,27.30
2022-07-30T15:24:42.019Z,27.00
2022-07-30T15:27:18.454Z,26.50
2022-07-30T15:29:46.450Z,26.20
2022-07-30T15:32:14.236Z,26.10
2022-07-30T15:34:42.370Z,25.70
2022-07-30T15:37:10.818Z,25.60
2022-07-30T15:39:38.889Z,25.70
2022-07-30T15:42:07.178Z,25.70
2022-07-30T15:44:35.467Z,25.70
2022-07-30T15:47:03.340Z,25.50
2022-07-30T15:49:31.251Z,25.30
2022-07-30T15:52:02.173Z,25.10
2022-07-30T15:54:31.656Z,24.80
2022-07-30T15:57:01.804Z,24.60
2022-07-30T15:59:30.170Z,24.30
2022-07-30T16:01:58.146Z,24.10
2022-07-30T16:04:31.361Z,24.10
2022-07-30T16:07:02.890Z,24.10
2022-07-30T16:09:31.514Z,24.00
2022-07-30T16:11:59.699Z,24.10
2022-07-30T16:14:28.266Z,24.10
2022-07-30T16:16:56.159Z,23.90
2022-07-30T16:19:24.057Z,23.70
2022-07-30T16:21:52.062Z,23.90
2022-07-30T16:24:19.958Z,24.00
2022-07-30T16:26:47.958Z,24.00
2022-07-30T16:29:15.843Z,24.10
2022-07-30T16:31:44.848Z,24.20
2022-07-30T16:34:12.758Z,24.20
2022-07-30T16:36:40.671Z,24.20
2022-07-30T16:39:08.639Z,24.20
2022-07-30T16:41:36.564Z,24.10
2022-07-30T16:44:04.919Z,24.00
2022-07-30T16:46:32.788Z,24.00
2022-07-30T16:49:00.731Z,23.90
2022-07-30T16:51:28.706Z,23.90
2022-07-30T16:53:56.620Z,24.00
2022-07-30T16:56:24.504Z,23.80
2022-07-30T16:58:52.331Z,23.50
2022-07-30T17:01:20.332Z,23.40
2022-07-30T17:03:48.227Z,23.40
2022-07-30T17:06:16.375Z,23.40
2022-07-30T17:08:44.204Z,23.40
2022-07-30T17:11:23.857Z,23.50
2022-07-30T17:14:00.536Z,23.30
2022-07-30T17:16:28.730Z,23.10
2022-07-30T17:18:56.702Z,23.10
2022-07-30T17:21:24.582Z,23.20
2022-07-30T17:23:52.444Z,23.20
2022-07-30T17:26:20.254Z,23.30
2022-07-30T17:28:48.122Z,23.20
2022-07-30T17:31:15.974Z,23.10
2022-07-30T17:33:43.845Z,23.10
2022-07-30T17:36:13.816Z,23.20
2022-07-30T17:38:41.682Z,23.20
2022-07-30T17:41:13.414Z,23.10
2022-07-30T17:43:41.523Z,23.10
2022-07-30T17:46:09.351Z,23.10
2022-07-30T17:48:37.188Z,23.10
2022-07-30T17:51:05.198Z,23.10
2022-07-30T17:53:33.093Z,23.10
2022-07-30T17:56:02.861Z,23.10
2022-07-30T17:58:30.724Z,23.10
2022-07-30T18:00:59.708Z,22.90
2022-07-30T18:03:27.519Z,22.80
2022-07-30T18:05:57.255Z,22.80
2022-07-30T18:08:25.259Z,22.70
2022-07-30T18:10:53.168Z,22.70
2022-07-30T18:13:26.466Z,22.70
2022-07-30T18:15:55.040Z,22.70
2022-07-30T18:18:23.040Z,22.70
2022-07-30T18:20:51.427Z,22.60
2022-07-30T18:23:20.339Z,22.60
2022-07-30T18:25:53.098Z,22.60
2022-07-30T18:28:22.781Z,22.60
2022-07-30T18:30:50.814Z,22.50
2022-07-30T18:33:18.810Z,22.50
2022-07-30T18:35:46.663Z,22.40
2022-07-30T18:38:15.495Z,22.40
2022-07-30T18:40:45.750Z,22.30
2022-07-30T18:43:21.455Z,22.40
2022-07-30T18:45:49.680Z,22.30
2022-07-30T18:48:17.514Z,22.20
2022-07-30T18:50:45.326Z,22.20
2022-07-30T18:53:15.697Z,22.10
2022-07-30T18:55:44.636Z,22.10
2022-07-30T18:58:12.719Z,22.00
2022-07-30T19:00:43.822Z,21.90
2022-07-30T19:03:17.522Z,21.80
2022-07-30T19:05:47.000Z,21.80
2022-07-30T19:08:14.832Z,21.70
2022-07-30T19:10:43.147Z,21.60
2022-07-30T19:13:11.252Z,21.60
2022-07-30T19:15:39.183Z,21.50
2022-07-30T19:18:07.036Z,21.50
2022-07-30T19:20:34.920Z,21.40
2022-07-30T19:23:03.702Z,21.30
2022-07-30T19:25:33.494Z,21.20
2022-07-30T19:28:02.509Z,21.20
2022-07-30T19:30:30.908Z,21.00
2022-07-30T19:33:07.594Z,20.60
2022-07-30T19:35:38.275Z,20.50
2022-07-30T19:38:06.545Z,20.50
2022-07-30T19:40:39.431Z,20.20
2022-07-30T19:43:09.522Z,19.90
2022-07-30T19:45:46.813Z,19.60
2022-07-30T19:48:28.644Z,19.60
2022-07-30T19:50:57.949Z,19.60
2022-07-30T19:53:29.099Z,19.50
2022-07-30T19:56:15.181Z,19.50
2022-07-30T19:58:43.403Z,19.40
2022-07-30T20:01:15.452Z,19.30
2022-07-30T20:03:45.385Z,19.20
2022-07-30T20:06:15.575Z,19.10
2022-07-30T20:08:44.735Z,18.90
2022-07-30T20:11:14.120Z,18.80
2022-07-30T20:13:49.294Z,18.80
2022-07-30T20:16:17.518Z,18.80
2022-07-30T20:18:49.731Z,18.70
2022-07-30T20:21:19.426Z,18.60
2022-07-30T20:23:47.353Z,18.50
2022-07-30T20:26:20.368Z,18.30
2022-07-30T20:28:52.890Z,18.10
2022-07-30T20:31:20.934Z,18.20
2022-07-30T20:33:50.188Z,18.30
2022-07-30T20:36:19.127Z,18.40
2022-07-30T20:38:48.018Z,18.40
2022-07-30T20:41:16.466Z,18.40
2022-07-30T20:43:52.040Z,18.30
2022-07-30T20:46:23.697Z,18.20
2022-07-30T20:48:53.017Z,18.10
2022-07-30T20:51:21.432Z,17.80
2022-07-30T20:54:00.931Z,17.60
2022-07-30T20:56:29.603Z,17.60
2022-07-30T20:58:57.972Z,17.80
2022-07-30T21:01:30.811Z,17.80
2022-07-30T21:03:58.904Z,17.80
2022-07-30T21:06:26.780Z,17.90
2022-07-30T21:08:57.249Z,17.70
2022-07-30T21:11:25.275Z,17.60
2022-07-30T21:13:55.035Z,17.50
2022-07-30T21:16:30.503Z,17.50
2022-07-30T21:18:58.688Z,17.50
2022-07-30T21:21:30.796Z,17.50
2022-07-30T21:24:11.478Z,17.50
2022-07-30T21:26:42.596Z,17.50
2022-07-30T21:29:10.893Z,17.50
2022-07-30T21:31:57.869Z,17.50
2022-07-30T21:34:30.899Z,17.40
2022-07-30T21:37:03.306Z,17.30
2022-07-30T21:39:31.267Z,17.30
2022-07-30T21:42:10.595Z,17.40
2022-07-30T21:44:39.211Z,17.40
2022-07-30T21:47:10.032Z,17.40
2022-07-30T21:49:39.054Z,17.30
2022-07-30T21:52:07.938Z,17.10
2022-07-30T21:54:48.086Z,17.10
2022-07-30T21:57:23.188Z,17.00
2022-07-30T21:59:55.451Z,17.00
2022-07-30T22:02:23.858Z,17.00
2022-07-30T22:04:52.514Z,17.00
2022-07-30T22:07:21.860Z,16.80
2022-07-30T22:09:50.003Z,16.90
2022-07-30T22:12:18.202Z,17.10
2022-07-30T22:14:49.330Z,17.10
2022-07-30T22:17:23.757Z,17.00
2022-07-30T22:20:08.590Z,16.90
2022-07-30T22:22:40.269Z,16.90
2022-07-30T22:25:09.856Z,16.90
2022-07-30T22:27:40.360Z,16.90
2022-07-30T22:30:25.443Z,16.80
2022-07-30T22:32:55.109Z,16.70
2022-07-30T22:35:32.476Z,16.70
2022-07-30T22:38:02.317Z,16.70
2022-07-30T22:40:30.798Z,16.70
2022-07-30T22:42:58.754Z,16.50
2022-07-30T22:45:47.059Z,16.40
2022-07-30T22:48:16.756Z,16.30
2022-07-30T22:50:48.492Z,16.30
2022-07-30T22:54:03.346Z,16.20
2022-07-30T22:56:14.098Z,16.20
2022-07-30T22:58:43.502Z,16.40
2022-07-30T23:01:11.389Z,16.40
2022-07-30T23:03:39.246Z,16.50
2022-07-30T23:06:14.790Z,16.60
2022-07-30T23:08:44.359Z,16.60
2022-07-30T23:11:12.221Z,16.60
2022-07-30T23:13:40.111Z,16.70
2022-07-30T23:16:07.969Z,16.60
2022-07-30T23:18:36.296Z,16.60
2022-07-30T23:21:04.531Z,16.60
2022-07-30T23:23:36.663Z,16.70
2022-07-30T23:26:05.242Z,16.70
2022-07-30T23:28:33.161Z,16.70
2022-07-30T23:31:01.272Z,16.70
2022-07-30T23:33:29.138Z,16.70
2022-07-30T23:35:57.709Z,16.50
2022-07-30T23:38:29.301Z,16.20
2022-07-30T23:41:03.197Z,16.10
2022-07-30T23:43:31.782Z,15.90
2022-07-30T23:45:59.893Z,15.90
2022-07-30T23:48:27.920Z,15.90
2022-07-30T23:50:55.787Z,15.70
2022-07-30T23:53:23.702Z,15.60
2022-07-30T23:55:51.819Z,15.50
2022-07-30T23:58:19.731Z,15.60
